Mansfield, Ohio
Current Conditions -  °F | °C
As of 11:52 PM on Monday 22 Dec 2014 (Local Time) from KMFD Reporting Station
Overcast Overcast  
Wind Chill:   Ceiling: 9000
Heat Index:   Visibility: 10mi
Dew Point:   Wind: 13mph
Humidity: 76%   Direction: 120°ESE
Pressure: 29.83"   Gusts: NA
Location:  40.76°N, 82.51°W
Report Text: KMFD 230452Z AUTO 12011KT 10SM BKN090 OVC120 05/01 A2983 RMK AO2 SLP108 T00500011 400671067
Loading
Personal Weather Stations






























Interactive Weather Map New forecast layout! Learn more

10-Day Weather Forecast

Advertisements
Track Severe Weather on mobile